»·PEaware :: SWA442 KSLC-KLAS

SWA442 :: KSLC-KLAS

FLIGHT INFORMATION

Flight Status: Arrived
Operator:
Southwest Airlines
More flights by this operator :: More flights under this callsign
Pilot: Eric M. (17640)
Aircraft: BOEING 737-800
(B738)
More flights by this aircraft type
Origin: KSLC Salt Lake City Intl
United States
Destination: KLAS McCarran Intl
United States
More flights between these airports :: More routes between these airports
Route: +ZIONZ1 EHK KSINO SITEE3
File this flight plan on PilotEdge
Remarks:
Altitude:
(Current/Filed)
32,000ft
Speed:
(Current/Filed)
450kts
Departed: 06-Dec-18 08:59 PM
Arrived: 06-Dec-18 09:57 PM
Distance/Time
Traveled:
319nm/0:57
Distance/Time
To Go:
Arrived

Flight Plot

Page will automatically refresh every two minutes.

Flight plan parsing failed; only flown route is shown


Map Options




Map Legend


Flown Route
Filed Route
Departure Airport
Arrival Airport
Navaid (VOR, NDB)
Fix

Horizontal Profiles

Position Reports

Time Latitude Longitude Heading Altitude Ground
Speed
06-Dec-18 20:27 40.788127 -111.977856 267 4235ft 0kts
06-Dec-18 20:28 40.788127 -111.977856 267 4235ft 0kts
06-Dec-18 20:29 40.788127 -111.977856 267 4235ft 0kts
06-Dec-18 20:30 40.788127 -111.977856 267 4235ft 0kts
06-Dec-18 20:31 40.788127 -111.977856 267 4235ft 0kts
06-Dec-18 20:32 40.788127 -111.977856 267 4235ft 0kts
06-Dec-18 20:33 40.788127 -111.977856 267 4235ft 0kts
06-Dec-18 20:34 40.788127 -111.977856 267 4235ft 0kts
06-Dec-18 20:35 40.788127 -111.977856 267 4235ft 0kts
06-Dec-18 20:36 40.788127 -111.977856 267 4235ft 0kts
06-Dec-18 20:37 40.788127 -111.977856 267 4235ft 0kts
06-Dec-18 20:38 40.788127 -111.977856 267 4235ft 0kts
06-Dec-18 20:40 40.788127 -111.977856 267 4235ft 0kts
06-Dec-18 20:41 40.788127 -111.977856 267 4235ft 0kts
06-Dec-18 20:42 40.788127 -111.977856 267 4235ft 0kts
06-Dec-18 20:43 40.788127 -111.977856 267 4235ft 0kts
06-Dec-18 20:44 40.788127 -111.977856 267 4235ft 0kts
06-Dec-18 20:45 40.788127 -111.977856 267 4235ft 0kts
06-Dec-18 20:46 40.788127 -111.977856 267 4235ft 0kts
06-Dec-18 20:47 40.788127 -111.977856 267 4235ft 0kts
06-Dec-18 20:48 40.788127 -111.977856 267 4235ft 0kts
06-Dec-18 20:49 40.788134 -111.977577 267 4234ft 5kts
06-Dec-18 20:50 40.788139 -111.977414 267 4234ft 0kts
06-Dec-18 20:51 40.788139 -111.977414 267 4234ft 0kts
06-Dec-18 20:52 40.788139 -111.977414 267 4234ft 0kts
06-Dec-18 20:53 40.788428 -111.977130 48 4235ft 9kts
06-Dec-18 20:54 40.794319 -111.977637 354 4235ft 34kts
06-Dec-18 20:55 40.801362 -111.978403 355 4234ft 22kts
06-Dec-18 20:56 40.807152 -111.978453 34 4234ft 0kts
06-Dec-18 20:57 40.807152 -111.978453 34 4234ft 0kts
06-Dec-18 20:58 40.807205 -111.978403 36 4234ft 4kts
06-Dec-18 20:59 40.802663 -111.976373 175 4235ft 102kts
06-Dec-18 20:59 40.762215 -111.972542 177 5880ft 202kts
06-Dec-18 21:01 40.684323 -111.957242 178 8271ft 255kts
06-Dec-18 21:01 40.620924 -111.955480 180 10002ft 281kts
06-Dec-18 21:02 40.543672 -111.953830 180 11891ft 317kts
06-Dec-18 21:04 40.438273 -111.950913 178 14256ft 328kts
06-Dec-18 21:05 40.343924 -111.944065 179 17428ft 343kts
06-Dec-18 21:05 40.262495 -111.939400 185 19934ft 354kts
06-Dec-18 21:06 40.161474 -111.955369 189 22706ft 367kts
06-Dec-18 21:08 40.037396 -111.974076 189 25593ft 384kts
06-Dec-18 21:08 39.946002 -111.987457 190 27416ft 395kts
06-Dec-18 21:09 39.834287 -112.003787 190 29374ft 409kts
06-Dec-18 21:10 39.719111 -112.020542 190 31296ft 418kts
06-Dec-18 21:11 39.599608 -112.037874 190 32214ft 429kts
06-Dec-18 21:12 39.473655 -112.056160 190 32209ft 455kts
06-Dec-18 21:13 39.343781 -112.074601 190 32207ft 457kts
06-Dec-18 21:14 39.214058 -112.092929 190 32211ft 457kts
06-Dec-18 21:15 39.091591 -112.134773 211 32209ft 446kts
06-Dec-18 21:16 38.981051 -112.214197 212 32207ft 442kts
06-Dec-18 21:17 38.881211 -112.285442 211 32209ft 436kts
06-Dec-18 21:18 38.774373 -112.361761 211 32209ft 436kts
06-Dec-18 21:19 38.666784 -112.438649 211 32195ft 435kts
06-Dec-18 21:20 38.559423 -112.515405 212 32181ft 435kts
06-Dec-18 21:21 38.450734 -112.593162 212 32177ft 435kts
06-Dec-18 21:22 38.342792 -112.670409 211 32185ft 436kts
06-Dec-18 21:23 38.233491 -112.748620 211 32183ft 436kts
06-Dec-18 21:24 38.124816 -112.826470 211 32184ft 438kts
06-Dec-18 21:25 38.015140 -112.905079 211 32174ft 445kts
06-Dec-18 21:26 37.904796 -112.984176 211 32162ft 449kts
06-Dec-18 21:27 37.797368 -113.067989 222 32168ft 452kts
06-Dec-18 21:28 37.718679 -113.194801 236 32164ft 449kts
06-Dec-18 21:29 37.646859 -113.328309 236 32163ft 449kts
06-Dec-18 21:30 37.573186 -113.461809 230 32163ft 449kts
06-Dec-18 21:31 37.469358 -113.556078 207 32170ft 455kts
06-Dec-18 21:32 37.351986 -113.625713 207 32169ft 455kts
06-Dec-18 21:33 37.238111 -113.693607 207 32176ft 455kts
06-Dec-18 21:34 37.121889 -113.762696 207 32173ft 454kts
06-Dec-18 21:35 37.005953 -113.831364 207 31804ft 449kts
06-Dec-18 21:36 36.893454 -113.897827 206 29413ft 416kts
06-Dec-18 21:37 36.791669 -113.957795 205 25551ft 390kts
06-Dec-18 21:38 36.695124 -114.014543 205 22804ft 365kts
06-Dec-18 21:39 36.604033 -114.068384 208 20582ft 367kts
06-Dec-18 21:40 36.538188 -114.159034 234 18307ft 351kts
06-Dec-18 21:41 36.485172 -114.261839 235 16073ft 361kts
06-Dec-18 21:42 36.432418 -114.364711 235 13112ft 325kts
06-Dec-18 21:43 36.388672 -114.449899 234 12545ft 274kts
06-Dec-18 21:44 36.346870 -114.530929 235 11385ft 271kts
06-Dec-18 21:45 36.306863 -114.608458 236 10290ft 265kts
06-Dec-18 21:46 36.254598 -114.664303 206 9944ft 275kts
06-Dec-18 21:47 36.180330 -114.691904 196 9694ft 269kts
06-Dec-18 21:48 36.111860 -114.715182 204 8654ft 259kts
06-Dec-18 21:49 36.070554 -114.780277 264 7313ft 245kts
06-Dec-18 21:50 36.072253 -114.853581 273 6200ft 173kts
06-Dec-18 21:51 36.073409 -114.908216 271 5377ft 146kts
06-Dec-18 21:52 36.073687 -114.958834 271 4614ft 147kts
06-Dec-18 21:53 36.073911 -115.008219 270 3894ft 143kts
06-Dec-18 21:54 36.073407 -115.058200 270 3268ft 152kts
06-Dec-18 21:55 36.073630 -115.106533 269 2434ft 135kts
06-Dec-18 21:56 36.073659 -115.143813 271 2118ft 20kts
06-Dec-18 21:57 36.076992 -115.152324 338 2118ft 16kts
06-Dec-18 21:58 36.077717 -115.145419 93 2118ft 8kts
06-Dec-18 21:59 36.079915 -115.140429 39 2118ft 1kts
06-Dec-18 22:00 36.079918 -115.140426 38 2118ft 0kts

Navigation Log

Ident Type
Flight plan parsing failed, navigation log unavailable